TimeCDT,TemperatureF,Dew PointF,Humidity,Sea Level PressureIn,VisibilityMPH,Wind Direction,Wind SpeedMPH,Gust SpeedMPH,PrecipitationIn,Events,Conditions,WindDirDegrees,DateUTC
12:15 AM,43.9,41.9,93,29.80,10.0,Calm,Calm,-,N/A,,Overcast,0,2013-10-20 05:15:00
12:35 AM,45.9,41.5,85,29.79,10.0,Calm,Calm,-,N/A,,Overcast,0,2013-10-20 05:35:00
12:55 AM,45.5,41.9,87,29.79,10.0,Calm,Calm,-,N/A,,Overcast,0,2013-10-20 05:55:00
1:15 AM,45.5,42.1,88,29.78,10.0,ESE,3.5,-,N/A,,Overcast,110,2013-10-20 06:15:00
1:35 AM,45.7,42.1,87,29.77,10.0,Calm,Calm,-,N/A,,Overcast,0,2013-10-20 06:35:00
1:55 AM,45.5,41.4,85,29.77,10.0,Calm,Calm,-,N/A,,Mostly Cloudy,0,2013-10-20 06:55:00
2:15 AM,45.7,41.5,85,29.76,10.0,Calm,Calm,-,N/A,,Mostly Cloudy,0,2013-10-20 07:15:00
2:35 AM,45.7,41.9,87,29.76,10.0,Calm,Calm,-,N/A,,Overcast,0,2013-10-20 07:35:00
2:55 AM,45.3,41.4,86,29.75,10.0,East,3.5,-,N/A,,Mostly Cloudy,90,2013-10-20 07:55:00
3:15 AM,44.6,41.2,88,29.74,10.0,Calm,Calm,-,N/A,,Scattered Clouds,0,2013-10-20 08:15:00
3:35 AM,44.2,41.4,90,29.73,10.0,Calm,Calm,-,N/A,,Clear,0,2013-10-20 08:35:00
3:55 AM,41.2,40.6,98,29.73,10.0,Calm,Calm,-,N/A,,Scattered Clouds,0,2013-10-20 08:55:00
4:15 AM,42.6,41.9,97,29.72,10.0,Calm,Calm,-,N/A,,Mostly Cloudy,0,2013-10-20 09:15:00
4:35 AM,44.4,41.7,90,29.72,10.0,Calm,Calm,-,N/A,,Overcast,0,2013-10-20 09:35:00
4:55 AM,44.6,41.7,90,29.72,10.0,Calm,Calm,-,N/A,,Overcast,0,2013-10-20 09:55:00
5:15 AM,44.8,41.9,90,29.71,10.0,Calm,Calm,-,N/A,,Overcast,0,2013-10-20 10:15:00
5:35 AM,45.5,41.4,85,29.71,10.0,Calm,Calm,-,N/A,,Overcast,0,2013-10-20 10:35:00
5:55 AM,46.0,40.1,80,29.71,10.0,Calm,Calm,-,N/A,,Overcast,0,2013-10-20 10:55:00
6:15 AM,46.4,39.4,77,29.71,10.0,Calm,Calm,-,N/A,,Overcast,0,2013-10-20 11:15:00
6:35 AM,44.2,40.8,88,29.71,10.0,Calm,Calm,-,N/A,,Overcast,0,2013-10-20 11:35:00
6:55 AM,44.1,40.6,88,29.72,10.0,West,4.6,-,N/A,,Scattered Clouds,280,2013-10-20 11:55:00
7:15 AM,42.8,39.7,89,29.72,10.0,WNW,5.8,-,N/A,,Scattered Clouds,290,2013-10-20 12:15:00
7:35 AM,43.2,40.3,90,29.72,10.0,Calm,Calm,-,N/A,,Mostly Cloudy,0,2013-10-20 12:35:00
7:55 AM,43.7,40.6,89,29.72,10.0,West,3.5,-,N/A,,Overcast,270,2013-10-20 12:55:00
8:15 AM,44.6,41.2,88,29.74,10.0,WNW,5.8,-,N/A,,Mostly Cloudy,290,2013-10-20 13:15:00
8:35 AM,45.9,41.2,84,29.74,10.0,West,6.9,-,N/A,,Scattered Clouds,280,2013-10-20 13:35:00
8:55 AM,46.6,41.2,81,29.75,10.0,West,9.2,-,N/A,,Mostly Cloudy,270,2013-10-20 13:55:00
9:15 AM,47.5,41.7,80,29.76,10.0,West,9.2,-,N/A,,Mostly Cloudy,280,2013-10-20 14:15:00
9:35 AM,48.6,42.1,78,29.76,10.0,West,10.4,-,N/A,,Mostly Cloudy,280,2013-10-20 14:35:00
9:55 AM,50.4,41.7,72,29.77,10.0,WNW,11.5,-,N/A,,Mostly Cloudy,290,2013-10-20 14:55:00
10:15 AM,51.3,42.8,73,29.76,10.0,WNW,10.4,-,N/A,,Overcast,300,2013-10-20 15:15:00
10:35 AM,52.3,43.5,72,29.77,10.0,WNW,11.5,-,N/A,,Mostly Cloudy,290,2013-10-20 15:35:00
10:55 AM,54.7,44.6,69,29.77,10.0,West,8.1,-,N/A,,Scattered Clouds,280,2013-10-20 15:55:00
11:15 AM,57.2,44.6,63,29.78,10.0,WNW,10.4,-,N/A,,Scattered Clouds,290,2013-10-20 16:15:00
11:35 AM,58.3,44.4,60,29.79,10.0,West,11.5,-,N/A,,Mostly Cloudy,280,2013-10-20 16:35:00
11:55 AM,59.9,44.4,57,29.78,10.0,WNW,10.4,-,N/A,,Mostly Cloudy,300,2013-10-20 16:55:00
12:15 PM,60.1,43.3,54,29.78,10.0,WNW,9.2,-,N/A,,Scattered Clouds,300,2013-10-20 17:15:00
12:35 PM,61.2,43.0,51,29.78,10.0,WNW,6.9,-,N/A,,Clear,290,2013-10-20 17:35:00
12:55 PM,62.6,40.3,44,29.78,10.0,NW,16.1,-,N/A,,Clear,310,2013-10-20 17:55:00
1:15 PM,63.5,40.5,43,29.78,10.0,NW,15.0,-,N/A,,Clear,310,2013-10-20 18:15:00
1:35 PM,64.4,41.0,42,29.78,10.0,NW,16.1,19.6,N/A,,Clear,310,2013-10-20 18:35:00
1:55 PM,64.6,41.2,42,29.78,10.0,WNW,18.4,21.9,N/A,,Clear,300,2013-10-20 18:55:00
2:15 PM,64.6,40.3,41,29.78,10.0,WNW,18.4,24.2,N/A,,Clear,300,2013-10-20 19:15:00
2:35 PM,65.3,39.9,39,29.78,10.0,NW,21.9,27.6,N/A,,Scattered Clouds,310,2013-10-20 19:35:00
2:55 PM,64.6,39.4,40,29.78,10.0,NW,19.6,26.5,N/A,,Scattered Clouds,310,2013-10-20 19:55:00
3:15 PM,64.6,40.1,41,29.79,10.0,WNW,15.0,24.2,N/A,,Clear,290,2013-10-20 20:15:00
3:35 PM,63.7,39.4,41,29.79,10.0,NW,20.7,26.5,N/A,,Scattered Clouds,310,2013-10-20 20:35:00
3:55 PM,63.3,39.2,41,29.80,10.0,NW,21.9,28.8,N/A,,Mostly Cloudy,310,2013-10-20 20:55:00
4:15 PM,63.3,38.8,40,29.81,10.0,NW,19.6,25.3,N/A,,Scattered Clouds,310,2013-10-20 21:15:00
4:35 PM,61.9,37.4,40,29.82,10.0,WNW,21.9,28.8,N/A,,Clear,300,2013-10-20 21:35:00
4:55 PM,60.1,37.9,44,29.84,10.0,NW,21.9,27.6,N/A,,Clear,310,2013-10-20 21:55:00
5:15 PM,59.4,37.6,44,29.85,10.0,NW,18.4,27.6,N/A,,Clear,320,2013-10-20 22:15:00
5:35 PM,57.6,38.8,50,29.86,10.0,NW,12.7,17.3,N/A,,Clear,320,2013-10-20 22:35:00
5:55 PM,56.7,39.2,52,29.86,10.0,NW,15.0,21.9,N/A,,Scattered Clouds,320,2013-10-20 22:55:00
6:15 PM,55.2,39.6,56,29.87,10.0,NW,13.8,20.7,N/A,,Clear,320,2013-10-20 23:15:00
6:35 PM,53.6,39.4,59,29.89,10.0,NW,10.4,-,N/A,,Clear,310,2013-10-20 23:35:00
6:55 PM,52.7,39.7,61,29.90,10.0,NW,13.8,-,N/A,,Scattered Clouds,320,2013-10-20 23:55:00
7:15 PM,52.3,40.1,63,29.91,10.0,NW,13.8,-,N/A,,Mostly Cloudy,320,2013-10-21 00:15:00
7:35 PM,51.4,40.3,66,29.92,10.0,NW,15.0,20.7,N/A,,Scattered Clouds,320,2013-10-21 00:35:00
7:55 PM,49.5,40.6,72,29.94,10.0,NW,13.8,-,N/A,,Clear,310,2013-10-21 00:55:00
8:15 PM,47.8,41.2,78,29.94,10.0,NW,8.1,-,N/A,,Scattered Clouds,310,2013-10-21 01:15:00
8:35 PM,47.3,41.0,79,29.95,10.0,NW,9.2,-,N/A,,Mostly Cloudy,310,2013-10-21 01:35:00
8:55 PM,47.3,40.3,77,29.96,10.0,NW,10.4,18.4,N/A,,Scattered Clouds,310,2013-10-21 01:55:00
9:15 PM,46.4,39.6,77,29.97,10.0,NW,10.4,-,N/A,,Scattered Clouds,320,2013-10-21 02:15:00
9:35 PM,46.2,37.6,72,29.98,10.0,NNW,12.7,18.4,N/A,,Clear,330,2013-10-21 02:35:00
9:55 PM,45.5,37.4,73,30.00,10.0,NNW,11.5,21.9,N/A,,Clear,330,2013-10-21 02:55:00
10:15 PM,43.9,37.4,78,30.01,10.0,NNW,6.9,-,N/A,,Clear,340,2013-10-21 03:15:00
10:35 PM,43.2,36.9,78,30.02,10.0,NNW,15.0,23.0,N/A,,Clear,330,2013-10-21 03:35:00
10:55 PM,42.6,36.7,79,30.03,10.0,NNW,10.4,18.4,N/A,,Scattered Clouds,330,2013-10-21 03:55:00
11:15 PM,41.4,36.3,82,30.04,10.0,NNW,11.5,16.1,N/A,,Scattered Clouds,330,2013-10-21 04:15:00
11:35 PM,41.0,35.8,82,30.04,10.0,NNW,8.1,-,N/A,,Clear,330,2013-10-21 04:35:00
11:55 PM,39.4,35.6,86,30.04,10.0,NW,8.1,-,N/A,,Clear,320,2013-10-21 04:55:00